sensor_id;sensor_type;location;lat;lon;timestamp;P1;durP1;ratioP1;P2;durP2;ratioP2
20954;SDS011;10636;19.390;-99.256;2023-03-16T05:10:23;23.25;;;21.95;;
20954;SDS011;10636;19.390;-99.256;2023-03-16T05:12:51;19.92;;;18.92;;
20954;SDS011;10636;19.390;-99.256;2023-03-16T05:15:20;19.92;;;18.92;;
20954;SDS011;10636;19.390;-99.256;2023-03-16T05:17:48;19.08;;;18.10;;
20954;SDS011;10636;19.390;-99.256;2023-03-16T05:20:17;23.77;;;22.67;;
20954;SDS011;10636;19.390;-99.256;2023-03-16T05:22:47;24.25;;;23.10;;
20954;SDS011;10636;19.390;-99.256;2023-03-16T05:25:16;26.20;;;24.90;;
20954;SDS011;10636;19.390;-99.256;2023-03-16T05:27:50;27.83;;;26.52;;
20954;SDS011;10636;19.390;-99.256;2023-03-16T05:30:20;27.75;;;26.42;;
20954;SDS011;10636;19.390;-99.256;2023-03-16T05:32:48;28.75;;;27.45;;
20954;SDS011;10636;19.390;-99.256;2023-03-16T05:35:17;26.75;;;25.50;;
20954;SDS011;10636;19.390;-99.256;2023-03-16T05:37:46;22.50;;;21.42;;
20954;SDS011;10636;19.390;-99.256;2023-03-16T05:40:17;19.05;;;18.13;;
20954;SDS011;10636;19.390;-99.256;2023-03-16T05:42:48;16.33;;;15.55;;
20954;SDS011;10636;19.390;-99.256;2023-03-16T05:45:21;14.75;;;13.85;;
20954;SDS011;10636;19.390;-99.256;2023-03-16T05:47:50;15.10;;;14.32;;
20954;SDS011;10636;19.390;-99.256;2023-03-16T05:50:18;14.15;;;13.38;;
20954;SDS011;10636;19.390;-99.256;2023-03-16T05:52:51;14.95;;;14.18;;
20954;SDS011;10636;19.390;-99.256;2023-03-16T05:55:19;11.40;;;10.80;;
20954;SDS011;10636;19.390;-99.256;2023-03-16T05:57:48;6.10;;;5.60;;
20954;SDS011;10636;19.390;-99.256;2023-03-16T06:00:21;5.88;;;5.47;;
20954;SDS011;10636;19.390;-99.256;2023-03-16T06:02:54;5.80;;;5.30;;
20954;SDS011;10636;19.390;-99.256;2023-03-16T06:05:23;5.75;;;5.35;;
20954;SDS011;10636;19.390;-99.256;2023-03-16T06:07:53;5.43;;;5.03;;
20954;SDS011;10636;19.390;-99.256;2023-03-16T06:10:22;6.00;;;5.40;;
20954;SDS011;10636;19.390;-99.256;2023-03-16T06:12:51;5.53;;;5.13;;
20954;SDS011;10636;19.390;-99.256;2023-03-16T06:15:21;5.78;;;5.28;;
20954;SDS011;10636;19.390;-99.256;2023-03-16T06:17:51;5.93;;;5.43;;
20954;SDS011;10636;19.390;-99.256;2023-03-16T06:20:19;5.50;;;5.10;;
20954;SDS011;10636;19.390;-99.256;2023-03-16T06:22:48;5.53;;;5.05;;
20954;SDS011;10636;19.390;-99.256;2023-03-16T06:25:17;6.22;;;5.72;;
20954;SDS011;10636;19.390;-99.256;2023-03-16T06:27:46;5.50;;;5.05;;
20954;SDS011;10636;19.390;-99.256;2023-03-16T06:30:17;5.35;;;4.95;;
20954;SDS011;10636;19.390;-99.256;2023-03-16T06:32:47;6.05;;;5.55;;
20954;SDS011;10636;19.390;-99.256;2023-03-16T06:35:16;5.40;;;5.00;;
20954;SDS011;10636;19.390;-99.256;2023-03-16T06:37:45;5.72;;;5.32;;
20954;SDS011;10636;19.390;-99.256;2023-03-16T06:40:16;5.70;;;5.30;;
20954;SDS011;10636;19.390;-99.256;2023-03-16T06:42:45;5.32;;;4.93;;
20954;SDS011;10636;19.390;-99.256;2023-03-16T06:45:14;5.68;;;5.10;;
20954;SDS011;10636;19.390;-99.256;2023-03-16T06:47:42;5.80;;;5.40;;
20954;SDS011;10636;19.390;-99.256;2023-03-16T06:50:13;5.30;;;4.90;;
20954;SDS011;10636;19.390;-99.256;2023-03-16T06:52:42;5.30;;;4.90;;
20954;SDS011;10636;19.390;-99.256;2023-03-16T06:55:13;5.53;;;5.13;;
20954;SDS011;10636;19.390;-99.256;2023-03-16T06:57:45;5.38;;;5.00;;
20954;SDS011;10636;19.390;-99.256;2023-03-16T07:00:16;5.45;;;5.05;;
20954;SDS011;10636;19.390;-99.256;2023-03-16T07:02:46;5.22;;;4.90;;
20954;SDS011;10636;19.390;-99.256;2023-03-16T07:05:16;5.65;;;5.15;;
20954;SDS011;10636;19.390;-99.256;2023-03-16T07:07:48;5.30;;;4.90;;
20954;SDS011;10636;19.390;-99.256;2023-03-16T07:10:16;5.65;;;5.15;;
20954;SDS011;10636;19.390;-99.256;2023-03-16T07:12:45;5.30;;;4.90;;
20954;SDS011;10636;19.390;-99.256;2023-03-16T07:15:14;5.32;;;4.82;;
20954;SDS011;10636;19.390;-99.256;2023-03-16T07:17:44;5.10;;;4.80;;
20954;SDS011;10636;19.390;-99.256;2023-03-16T07:20:12;5.45;;;4.95;;
20954;SDS011;10636;19.390;-99.256;2023-03-16T07:22:42;5.65;;;5.15;;
20954;SDS011;10636;19.390;-99.256;2023-03-16T07:25:11;5.32;;;4.93;;
20954;SDS011;10636;19.390;-99.256;2023-03-16T07:27:43;5.32;;;4.90;;
20954;SDS011;10636;19.390;-99.256;2023-03-16T07:30:12;4.82;;;4.50;;
20954;SDS011;10636;19.390;-99.256;2023-03-16T07:32:41;5.13;;;4.72;;
20954;SDS011;10636;19.390;-99.256;2023-03-16T07:35:09;4.78;;;4.47;;
20954;SDS011;10636;19.390;-99.256;2023-03-16T07:37:38;4.97;;;4.68;;
20954;SDS011;10636;19.390;-99.256;2023-03-16T07:40:10;5.00;;;4.70;;
20954;SDS011;10636;19.390;-99.256;2023-03-16T07:42:39;5.10;;;4.80;;
20954;SDS011;10636;19.390;-99.256;2023-03-16T07:45:09;5.10;;;4.70;;
20954;SDS011;10636;19.390;-99.256;2023-03-16T07:47:39;4.47;;;4.18;;
20954;SDS011;10636;19.390;-99.256;2023-03-16T07:50:10;4.95;;;4.57;;
20954;SDS011;10636;19.390;-99.256;2023-03-16T07:52:41;5.00;;;4.63;;
20954;SDS011;10636;19.390;-99.256;2023-03-16T07:55:13;4.80;;;4.50;;
20954;SDS011;10636;19.390;-99.256;2023-03-16T07:57:42;4.97;;;4.65;;
20954;SDS011;10636;19.390;-99.256;2023-03-16T08:00:13;4.72;;;4.43;;
20954;SDS011;10636;19.390;-99.256;2023-03-16T08:02:45;4.97;;;4.57;;
20954;SDS011;10636;19.390;-99.256;2023-03-16T08:05:13;4.53;;;4.20;;
20954;SDS011;10636;19.390;-99.256;2023-03-16T08:07:42;4.72;;;4.32;;
20954;SDS011;10636;19.390;-99.256;2023-03-16T08:12:44;4.85;;;4.55;;
20954;SDS011;10636;19.390;-99.256;2023-03-16T08:15:13;4.60;;;4.20;;
20954;SDS011;10636;19.390;-99.256;2023-03-16T08:17:41;4.85;;;4.45;;
20954;SDS011;10636;19.390;-99.256;2023-03-16T08:20:10;4.47;;;4.07;;
20954;SDS011;10636;19.390;-99.256;2023-03-16T08:22:40;4.63;;;4.32;;
20954;SDS011;10636;19.390;-99.256;2023-03-16T08:25:10;4.40;;;4.10;;
20954;SDS011;10636;19.390;-99.256;2023-03-16T08:27:41;4.43;;;4.13;;
20954;SDS011;10636;19.390;-99.256;2023-03-16T08:30:11;4.72;;;4.43;;
20954;SDS011;10636;19.390;-99.256;2023-03-16T08:32:41;4.43;;;4.13;;
20954;SDS011;10636;19.390;-99.256;2023-03-16T08:35:10;4.53;;;4.20;;
20954;SDS011;10636;19.390;-99.256;2023-03-16T08:37:41;4.45;;;4.07;;
20954;SDS011;10636;19.390;-99.256;2023-03-16T08:40:13;4.50;;;4.20;;
20954;SDS011;10636;19.390;-99.256;2023-03-16T08:42:44;4.32;;;4.05;;
20954;SDS011;10636;19.390;-99.256;2023-03-16T08:45:14;4.45;;;4.10;;
20954;SDS011;10636;19.390;-99.256;2023-03-16T08:47:44;4.43;;;4.13;;
20954;SDS011;10636;19.390;-99.256;2023-03-16T08:50:13;4.43;;;4.13;;
20954;SDS011;10636;19.390;-99.256;2023-03-16T08:52:44;4.45;;;4.13;;
20954;SDS011;10636;19.390;-99.256;2023-03-16T08:55:13;4.47;;;4.10;;
20954;SDS011;10636;19.390;-99.256;2023-03-16T08:57:44;4.57;;;4.28;;
20954;SDS011;10636;19.390;-99.256;2023-03-16T09:00:13;4.07;;;3.78;;
20954;SDS011;10636;19.390;-99.256;2023-03-16T09:02:43;4.20;;;3.92;;
20954;SDS011;10636;19.390;-99.256;2023-03-16T09:05:12;4.53;;;4.22;;
20954;SDS011;10636;19.390;-99.256;2023-03-16T09:07:44;4.40;;;4.10;;
20954;SDS011;10636;19.390;-99.256;2023-03-16T09:10:14;4.30;;;4.00;;
20954;SDS011;10636;19.390;-99.256;2023-03-16T09:12:46;4.50;;;4.20;;
20954;SDS011;10636;19.390;-99.256;2023-03-16T09:15:14;4.35;;;4.05;;
20954;SDS011;10636;19.390;-99.256;2023-03-16T09:17:44;4.35;;;4.05;;
20954;SDS011;10636;19.390;-99.256;2023-03-16T09:20:13;4.35;;;4.05;;
20954;SDS011;10636;19.390;-99.256;2023-03-16T09:22:48;4.25;;;3.95;;
20954;SDS011;10636;19.390;-99.256;2023-03-16T09:25:16;4.18;;;3.97;;
20954;SDS011;10636;19.390;-99.256;2023-03-16T09:27:47;4.18;;;3.88;;
20954;SDS011;10636;19.390;-99.256;2023-03-16T09:30:15;4.22;;;3.92;;
20954;SDS011;10636;19.390;-99.256;2023-03-16T09:32:44;4.32;;;4.03;;
20954;SDS011;10636;19.390;-99.256;2023-03-16T09:35:13;4.43;;;4.13;;
20954;SDS011;10636;19.390;-99.256;2023-03-16T09:37:42;4.20;;;3.90;;
20954;SDS011;10636;19.390;-99.256;2023-03-16T09:40:13;3.75;;;3.55;;
20954;SDS011;10636;19.390;-99.256;2023-03-16T09:42:53;3.95;;;3.65;;
20954;SDS011;10636;19.390;-99.256;2023-03-16T09:45:31;3.63;;;3.42;;
20954;SDS011;10636;19.390;-99.256;2023-03-16T09:48:04;3.55;;;3.35;;
20954;SDS011;10636;19.390;-99.256;2023-03-16T09:50:37;3.67;;;3.47;;
20954;SDS011;10636;19.390;-99.256;2023-03-16T09:53:11;3.85;;;3.55;;
20954;SDS011;10636;19.390;-99.256;2023-03-16T09:55:45;3.72;;;3.42;;
20954;SDS011;10636;19.390;-99.256;2023-03-16T09:58:19;3.55;;;3.35;;
20954;SDS011;10636;19.390;-99.256;2023-03-16T10:00:51;3.60;;;3.30;;
20954;SDS011;10636;19.390;-99.256;2023-03-16T10:03:28;3.80;;;3.50;;
20954;SDS011;10636;19.390;-99.256;2023-03-16T10:06:06;3.83;;;3.63;;
20954;SDS011;10636;19.390;-99.256;2023-03-16T10:08:38;3.40;;;3.20;;
20954;SDS011;10636;19.390;-99.256;2023-03-16T10:11:21;3.63;;;3.38;;
20954;SDS011;10636;19.390;-99.256;2023-03-16T10:13:57;3.47;;;3.28;;
20954;SDS011;10636;19.390;-99.256;2023-03-16T10:16:31;3.72;;;3.50;;
20954;SDS011;10636;19.390;-99.256;2023-03-16T10:19:07;3.45;;;3.25;;
20954;SDS011;10636;19.390;-99.256;2023-03-16T10:21:40;3.90;;;3.60;;
20954;SDS011;10636;19.390;-99.256;2023-03-16T10:24:12;3.70;;;3.50;;
20954;SDS011;10636;19.390;-99.256;2023-03-16T10:26:52;3.45;;;3.25;;
20954;SDS011;10636;19.390;-99.256;2023-03-16T10:29:26;3.80;;;3.60;;
20954;SDS011;10636;19.390;-99.256;2023-03-16T10:31:57;3.78;;;3.58;;
20954;SDS011;10636;19.390;-99.256;2023-03-16T10:34:28;4.13;;;3.83;;
20954;SDS011;10636;19.390;-99.256;2023-03-16T10:36:57;3.67;;;3.47;;
20954;SDS011;10636;19.390;-99.256;2023-03-16T10:39:34;3.80;;;3.50;;
20954;SDS011;10636;19.390;-99.256;2023-03-16T10:42:08;4.05;;;3.75;;
20954;SDS011;10636;19.390;-99.256;2023-03-16T10:44:45;3.55;;;3.33;;
20954;SDS011;10636;19.390;-99.256;2023-03-16T10:47:18;4.10;;;3.80;;
20954;SDS011;10636;19.390;-99.256;2023-03-16T10:49:49;3.92;;;3.72;;
20954;SDS011;10636;19.390;-99.256;2023-03-16T10:52:18;3.80;;;3.50;;
20954;SDS011;10636;19.390;-99.256;2023-03-16T10:54:52;3.63;;;3.42;;
20954;SDS011;10636;19.390;-99.256;2023-03-16T10:57:24;3.53;;;3.33;;
20954;SDS011;10636;19.390;-99.256;2023-03-16T10:59:59;3.60;;;3.40;;
20954;SDS011;10636;19.390;-99.256;2023-03-16T11:02:41;4.18;;;3.88;;
20954;SDS011;10636;19.390;-99.256;2023-03-16T11:05:11;3.75;;;3.55;;
20954;SDS011;10636;19.390;-99.256;2023-03-16T11:07:48;3.50;;;3.30;;
20954;SDS011;10636;19.390;-99.256;2023-03-16T11:10:23;3.72;;;3.47;;
20954;SDS011;10636;19.390;-99.256;2023-03-16T11:13:00;3.40;;;3.20;;
20954;SDS011;10636;19.390;-99.256;2023-03-16T11:15:36;3.50;;;3.30;;
20954;SDS011;10636;19.390;-99.256;2023-03-16T11:18:12;3.60;;;3.40;;
20954;SDS011;10636;19.390;-99.256;2023-03-16T11:20:51;3.80;;;3.60;;
20954;SDS011;10636;19.390;-99.256;2023-03-16T11:23:24;3.85;;;3.55;;
20954;SDS011;10636;19.390;-99.256;2023-03-16T11:26:01;3.42;;;3.20;;
20954;SDS011;10636;19.390;-99.256;2023-03-16T11:28:35;3.50;;;3.30;;
20954;SDS011;10636;19.390;-99.256;2023-03-16T11:31:11;3.22;;;3.00;;
20954;SDS011;10636;19.390;-99.256;2023-03-16T11:33:46;3.92;;;3.63;;
20954;SDS011;10636;19.390;-99.256;2023-03-16T11:36:22;3.50;;;3.30;;
20954;SDS011;10636;19.390;-99.256;2023-03-16T11:39:06;4.00;;;3.70;;
20954;SDS011;10636;19.390;-99.256;2023-03-16T11:41:46;4.20;;;3.90;;
20954;SDS011;10636;19.390;-99.256;2023-03-16T11:44:23;4.70;;;4.30;;
20954;SDS011;10636;19.390;-99.256;2023-03-16T11:47:02;5.68;;;5.18;;
20954;SDS011;10636;19.390;-99.256;2023-03-16T11:49:54;5.28;;;4.88;;
20954;SDS011;10636;19.390;-99.256;2023-03-16T11:52:31;8.10;;;6.18;;
20954;SDS011;10636;19.390;-99.256;2023-03-16T11:55:16;7.65;;;6.95;;
20954;SDS011;10636;19.390;-99.256;2023-03-16T11:57:54;7.35;;;6.65;;
20954;SDS011;10636;19.390;-99.256;2023-03-16T12:00:41;7.07;;;6.28;;
20954;SDS011;10636;19.390;-99.256;2023-03-16T12:06:37;8.80;;;7.90;;
20954;SDS011;10636;19.390;-99.256;2023-03-16T12:12:33;9.18;;;8.10;;
20954;SDS011;10636;19.390;-99.256;2023-03-16T12:15:18;8.63;;;7.72;;
20954;SDS011;10636;19.390;-99.256;2023-03-16T12:17:56;9.40;;;8.50;;
20954;SDS011;10636;19.390;-99.256;2023-03-16T12:20:33;10.02;;;8.52;;
20954;SDS011;10636;19.390;-99.256;2023-03-16T12:23:09;9.95;;;8.95;;
20954;SDS011;10636;19.390;-99.256;2023-03-16T12:25:41;8.68;;;7.90;;
20954;SDS011;10636;19.390;-99.256;2023-03-16T12:28:13;8.35;;;7.65;;
20954;SDS011;10636;19.390;-99.256;2023-03-16T12:30:49;9.32;;;8.43;;
20954;SDS011;10636;19.390;-99.256;2023-03-16T12:33:46;9.18;;;8.27;;
20954;SDS011;10636;19.390;-99.256;2023-03-16T12:36:34;8.80;;;7.93;;
20954;SDS011;10636;19.390;-99.256;2023-03-16T12:39:13;9.38;;;8.40;;
20954;SDS011;10636;19.390;-99.256;2023-03-16T12:41:57;9.77;;;8.88;;
20954;SDS011;10636;19.390;-99.256;2023-03-16T12:44:35;9.88;;;9.00;;
20954;SDS011;10636;19.390;-99.256;2023-03-16T12:47:12;9.40;;;8.50;;
20954;SDS011;10636;19.390;-99.256;2023-03-16T12:49:49;10.35;;;8.80;;
20954;SDS011;10636;19.390;-99.256;2023-03-16T12:52:19;9.50;;;8.60;;
20954;SDS011;10636;19.390;-99.256;2023-03-16T12:54:49;9.75;;;8.88;;
20954;SDS011;10636;19.390;-99.256;2023-03-16T12:57:18;10.27;;;9.27;;
20954;SDS011;10636;19.390;-99.256;2023-03-16T12:59:53;10.45;;;9.45;;
20954;SDS011;10636;19.390;-99.256;2023-03-16T13:02:25;9.95;;;9.05;;
20954;SDS011;10636;19.390;-99.256;2023-03-16T13:04:57;9.80;;;9.00;;
20954;SDS011;10636;19.390;-99.256;2023-03-16T13:07:29;10.18;;;9.23;;
20954;SDS011;10636;19.390;-99.256;2023-03-16T13:09:59;9.77;;;8.77;;
20954;SDS011;10636;19.390;-99.256;2023-03-16T13:12:36;9.50;;;8.50;;
20954;SDS011;10636;19.390;-99.256;2023-03-16T13:15:14;9.70;;;8.77;;
20954;SDS011;10636;19.390;-99.256;2023-03-16T13:18:05;10.02;;;9.02;;
20954;SDS011;10636;19.390;-99.256;2023-03-16T13:20:49;9.73;;;8.73;;
20954;SDS011;10636;19.390;-99.256;2023-03-16T13:23:23;10.02;;;9.13;;
20954;SDS011;10636;19.390;-99.256;2023-03-16T13:26:03;9.60;;;8.70;;
20954;SDS011;10636;19.390;-99.256;2023-03-16T13:28:40;9.68;;;8.88;;
20954;SDS011;10636;19.390;-99.256;2023-03-16T13:31:19;9.88;;;9.07;;
20954;SDS011;10636;19.390;-99.256;2023-03-16T13:33:52;10.50;;;9.45;;
20954;SDS011;10636;19.390;-99.256;2023-03-16T13:36:25;9.95;;;8.95;;
20954;SDS011;10636;19.390;-99.256;2023-03-16T13:38:57;10.05;;;9.23;;
20954;SDS011;10636;19.390;-99.256;2023-03-16T13:41:31;9.95;;;8.95;;
20954;SDS011;10636;19.390;-99.256;2023-03-16T13:44:00;9.93;;;9.00;;
20954;SDS011;10636;19.390;-99.256;2023-03-16T13:46:31;9.30;;;8.40;;
20954;SDS011;10636;19.390;-99.256;2023-03-16T13:49:00;9.98;;;8.27;;
20954;SDS011;10636;19.390;-99.256;2023-03-16T13:51:28;8.93;;;8.15;;
20954;SDS011;10636;19.390;-99.256;2023-03-16T13:54:06;9.55;;;8.52;;
20954;SDS011;10636;19.390;-99.256;2023-03-16T13:56:48;8.80;;;7.90;;
20954;SDS011;10636;19.390;-99.256;2023-03-16T13:59:17;9.25;;;8.45;;
20954;SDS011;10636;19.390;-99.256;2023-03-16T14:01:47;9.07;;;8.18;;
20954;SDS011;10636;19.390;-99.256;2023-03-16T14:04:24;9.75;;;8.70;;
20954;SDS011;10636;19.390;-99.256;2023-03-16T14:06:54;10.20;;;9.20;;
20954;SDS011;10636;19.390;-99.256;2023-03-16T14:09:27;11.10;;;10.00;;
20954;SDS011;10636;19.390;-99.256;2023-03-16T14:11:57;10.57;;;9.50;;
20954;SDS011;10636;19.390;-99.256;2023-03-16T14:14:29;10.35;;;9.35;;
20954;SDS011;10636;19.390;-99.256;2023-03-16T14:17:07;10.73;;;9.75;;
20954;SDS011;10636;19.390;-99.256;2023-03-16T14:19:45;11.38;;;10.27;;
20954;SDS011;10636;19.390;-99.256;2023-03-16T14:22:19;12.27;;;11.18;;
20954;SDS011;10636;19.390;-99.256;2023-03-16T14:24:55;12.43;;;11.13;;
20954;SDS011;10636;19.390;-99.256;2023-03-16T14:27:28;13.52;;;12.13;;
20954;SDS011;10636;19.390;-99.256;2023-03-16T14:30:15;15.43;;;13.95;;
20954;SDS011;10636;19.390;-99.256;2023-03-16T14:32:55;16.10;;;14.70;;
20954;SDS011;10636;19.390;-99.256;2023-03-16T14:35:26;16.95;;;15.45;;
20954;SDS011;10636;19.390;-99.256;2023-03-16T14:37:56;16.75;;;15.25;;
20954;SDS011;10636;19.390;-99.256;2023-03-16T14:40:27;15.98;;;14.57;;
20954;SDS011;10636;19.390;-99.256;2023-03-16T14:43:00;18.23;;;16.63;;
20954;SDS011;10636;19.390;-99.256;2023-03-16T14:45:34;16.98;;;15.48;;
20954;SDS011;10636;19.390;-99.256;2023-03-16T14:48:04;15.77;;;14.40;;
20954;SDS011;10636;19.390;-99.256;2023-03-16T14:50:45;14.40;;;13.10;;
20954;SDS011;10636;19.390;-99.256;2023-03-16T14:53:23;12.77;;;11.68;;
20954;SDS011;10636;19.390;-99.256;2023-03-16T14:55:55;14.07;;;12.68;;
20954;SDS011;10636;19.390;-99.256;2023-03-16T14:58:26;13.07;;;11.88;;
20954;SDS011;10636;19.390;-99.256;2023-03-16T15:00:56;12.10;;;10.90;;
20954;SDS011;10636;19.390;-99.256;2023-03-16T15:03:29;10.93;;;9.88;;
20954;SDS011;10636;19.390;-99.256;2023-03-16T15:06:00;10.20;;;9.40;;
20954;SDS011;10636;19.390;-99.256;2023-03-16T15:08:32;10.50;;;9.55;;
20954;SDS011;10636;19.390;-99.256;2023-03-16T15:11:10;9.80;;;8.90;;
20954;SDS011;10636;19.390;-99.256;2023-03-16T15:13:46;10.07;;;9.07;;
20954;SDS011;10636;19.390;-99.256;2023-03-16T15:16:29;10.18;;;9.18;;
20954;SDS011;10636;19.390;-99.256;2023-03-16T15:18:58;10.68;;;9.70;;
20954;SDS011;10636;19.390;-99.256;2023-03-16T15:21:29;9.48;;;8.57;;
20954;SDS011;10636;19.390;-99.256;2023-03-16T15:23:58;10.68;;;8.82;;
20954;SDS011;10636;19.390;-99.256;2023-03-16T15:26:28;9.73;;;8.93;;
20954;SDS011;10636;19.390;-99.256;2023-03-16T15:28:57;9.20;;;8.30;;
20954;SDS011;10636;19.390;-99.256;2023-03-16T15:31:26;10.30;;;9.40;;
20954;SDS011;10636;19.390;-99.256;2023-03-16T15:33:54;10.25;;;9.32;;
20954;SDS011;10636;19.390;-99.256;2023-03-16T15:36:23;11.90;;;10.80;;
20954;SDS011;10636;19.390;-99.256;2023-03-16T15:38:54;12.40;;;11.27;;
20954;SDS011;10636;19.390;-99.256;2023-03-16T15:41:23;14.38;;;11.60;;
20954;SDS011;10636;19.390;-99.256;2023-03-16T15:43:54;13.60;;;12.20;;
20954;SDS011;10636;19.390;-99.256;2023-03-16T15:46:26;14.48;;;12.98;;
20954;SDS011;10636;19.390;-99.256;2023-03-16T15:48:54;15.98;;;14.52;;
20954;SDS011;10636;19.390;-99.256;2023-03-16T15:51:24;15.35;;;14.05;;
20954;SDS011;10636;19.390;-99.256;2023-03-16T15:54:00;14.05;;;12.75;;
20954;SDS011;10636;19.390;-99.256;2023-03-16T15:56:32;15.30;;;13.80;;
20954;SDS011;10636;19.390;-99.256;2023-03-16T15:59:10;16.02;;;14.52;;
20954;SDS011;10636;19.390;-99.256;2023-03-16T16:01:43;16.15;;;14.02;;
20954;SDS011;10636;19.390;-99.256;2023-03-16T16:04:13;15.27;;;13.68;;
20954;SDS011;10636;19.390;-99.256;2023-03-16T16:06:44;15.50;;;14.05;;
20954;SDS011;10636;19.390;-99.256;2023-03-16T16:09:19;16.02;;;14.63;;
20954;SDS011;10636;19.390;-99.256;2023-03-16T16:11:48;15.80;;;14.40;;
20954;SDS011;10636;19.390;-99.256;2023-03-16T16:14:20;16.60;;;14.85;;
20954;SDS011;10636;19.390;-99.256;2023-03-16T16:16:52;14.70;;;13.20;;
20954;SDS011;10636;19.390;-99.256;2023-03-16T16:19:21;13.70;;;12.50;;
20954;SDS011;10636;19.390;-99.256;2023-03-16T16:21:50;13.38;;;11.70;;
20954;SDS011;10636;19.390;-99.256;2023-03-16T16:24:23;13.68;;;12.48;;
20954;SDS011;10636;19.390;-99.256;2023-03-16T16:26:59;14.25;;;12.95;;
20954;SDS011;10636;19.390;-99.256;2023-03-16T16:29:32;13.32;;;11.90;;
20954;SDS011;10636;19.390;-99.256;2023-03-16T16:32:01;14.38;;;12.30;;
20954;SDS011;10636;19.390;-99.256;2023-03-16T16:34:29;13.95;;;11.82;;
20954;SDS011;10636;19.390;-99.256;2023-03-16T16:36:58;14.70;;;13.43;;
20954;SDS011;10636;19.390;-99.256;2023-03-16T16:39:26;14.00;;;12.77;;
20954;SDS011;10636;19.390;-99.256;2023-03-16T16:41:55;12.73;;;11.27;;
20954;SDS011;10636;19.390;-99.256;2023-03-16T16:44:24;11.30;;;10.20;;
20954;SDS011;10636;19.390;-99.256;2023-03-16T16:46:57;11.05;;;9.80;;
20954;SDS011;10636;19.390;-99.256;2023-03-16T16:49:28;10.27;;;9.27;;
20954;SDS011;10636;19.390;-99.256;2023-03-16T16:52:01;9.75;;;8.65;;
20954;SDS011;10636;19.390;-99.256;2023-03-16T16:54:30;9.00;;;8.20;;
20954;SDS011;10636;19.390;-99.256;2023-03-16T16:57:00;8.15;;;7.30;;
20954;SDS011;10636;19.390;-99.256;2023-03-16T16:59:29;10.73;;;7.93;;
20954;SDS011;10636;19.390;-99.256;2023-03-16T17:02:11;7.93;;;7.13;;
20954;SDS011;10636;19.390;-99.256;2023-03-16T17:04:54;7.38;;;6.68;;
20954;SDS011;10636;19.390;-99.256;2023-03-16T17:07:23;8.75;;;6.60;;
20954;SDS011;10636;19.390;-99.256;2023-03-16T17:09:54;8.77;;;6.20;;
20954;SDS011;10636;19.390;-99.256;2023-03-16T17:12:23;6.93;;;6.18;;
20954;SDS011;10636;19.390;-99.256;2023-03-16T17:14:54;7.47;;;6.20;;
20954;SDS011;10636;19.390;-99.256;2023-03-16T17:17:25;6.80;;;6.03;;
20954;SDS011;10636;19.390;-99.256;2023-03-16T17:19:53;6.55;;;5.82;;
20954;SDS011;10636;19.390;-99.256;2023-03-16T17:22:22;7.55;;;6.05;;
20954;SDS011;10636;19.390;-99.256;2023-03-16T17:24:52;5.57;;;5.07;;
20954;SDS011;10636;19.390;-99.256;2023-03-16T17:27:22;6.25;;;5.68;;
20954;SDS011;10636;19.390;-99.256;2023-03-16T17:29:53;6.05;;;5.40;;
20954;SDS011;10636;19.390;-99.256;2023-03-16T17:32:23;7.43;;;6.55;;
20954;SDS011;10636;19.390;-99.256;2023-03-16T17:34:53;6.65;;;6.05;;
20954;SDS011;10636;19.390;-99.256;2023-03-16T17:37:22;7.20;;;6.50;;
20954;SDS011;10636;19.390;-99.256;2023-03-16T17:39:50;6.72;;;5.97;;
20954;SDS011;10636;19.390;-99.256;2023-03-16T17:42:20;6.22;;;5.63;;
20954;SDS011;10636;19.390;-99.256;2023-03-16T17:44:51;6.32;;;5.78;;
20954;SDS011;10636;19.390;-99.256;2023-03-16T17:47:20;5.97;;;5.47;;
20954;SDS011;10636;19.390;-99.256;2023-03-16T17:49:54;6.47;;;5.97;;
20954;SDS011;10636;19.390;-99.256;2023-03-16T17:52:23;6.43;;;5.82;;
20954;SDS011;10636;19.390;-99.256;2023-03-16T17:54:53;6.78;;;6.07;;
20954;SDS011;10636;19.390;-99.256;2023-03-16T17:57:23;6.53;;;5.78;;
20954;SDS011;10636;19.390;-99.256;2023-03-16T17:59:54;6.57;;;5.90;;
20954;SDS011;10636;19.390;-99.256;2023-03-16T18:02:36;6.28;;;5.68;;
20954;SDS011;10636;19.390;-99.256;2023-03-16T18:05:16;6.40;;;5.82;;
20954;SDS011;10636;19.390;-99.256;2023-03-16T18:07:46;7.10;;;6.50;;
20954;SDS011;10636;19.390;-99.256;2023-03-16T18:10:15;6.55;;;6.03;;
20954;SDS011;10636;19.390;-99.256;2023-03-16T18:12:45;6.57;;;5.65;;
20954;SDS011;10636;19.390;-99.256;2023-03-16T18:15:19;6.40;;;5.80;;
20954;SDS011;10636;19.390;-99.256;2023-03-16T18:17:50;6.22;;;5.63;;
20954;SDS011;10636;19.390;-99.256;2023-03-16T18:20:22;5.65;;;5.13;;
20954;SDS011;10636;19.390;-99.256;2023-03-16T18:22:57;5.13;;;4.63;;
20954;SDS011;10636;19.390;-99.256;2023-03-16T18:25:28;4.50;;;4.00;;
20954;SDS011;10636;19.390;-99.256;2023-03-16T18:27:59;3.95;;;3.60;;
20954;SDS011;10636;19.390;-99.256;2023-03-16T18:30:31;3.90;;;3.50;;
20954;SDS011;10636;19.390;-99.256;2023-03-16T18:33:01;4.90;;;3.70;;
20954;SDS011;10636;19.390;-99.256;2023-03-16T18:35:32;3.70;;;3.30;;
20954;SDS011;10636;19.390;-99.256;2023-03-16T18:38:01;3.90;;;3.55;;
20954;SDS011;10636;19.390;-99.256;2023-03-16T18:40:30;3.95;;;3.55;;
20954;SDS011;10636;19.390;-99.256;2023-03-16T18:43:02;3.78;;;3.47;;
20954;SDS011;10636;19.390;-99.256;2023-03-16T18:45:33;3.78;;;3.47;;
20954;SDS011;10636;19.390;-99.256;2023-03-16T18:48:02;3.42;;;3.00;;
20954;SDS011;10636;19.390;-99.256;2023-03-16T18:50:32;3.50;;;3.20;;
20954;SDS011;10636;19.390;-99.256;2023-03-16T18:53:02;3.40;;;3.10;;
20954;SDS011;10636;19.390;-99.256;2023-03-16T18:55:35;3.53;;;3.30;;
20954;SDS011;10636;19.390;-99.256;2023-03-16T18:58:12;3.42;;;3.13;;
20954;SDS011;10636;19.390;-99.256;2023-03-16T19:00:43;3.65;;;3.20;;
20954;SDS011;10636;19.390;-99.256;2023-03-16T19:03:23;3.60;;;3.30;;
20954;SDS011;10636;19.390;-99.256;2023-03-16T19:05:55;3.60;;;3.30;;
20954;SDS011;10636;19.390;-99.256;2023-03-16T19:08:32;3.67;;;3.35;;
20954;SDS011;10636;19.390;-99.256;2023-03-16T19:11:00;3.75;;;3.45;;
20954;SDS011;10636;19.390;-99.256;2023-03-16T19:13:32;3.50;;;3.20;;
20954;SDS011;10636;19.390;-99.256;2023-03-16T19:16:00;3.60;;;3.30;;
20954;SDS011;10636;19.390;-99.256;2023-03-16T19:18:32;4.63;;;3.40;;
20954;SDS011;10636;19.390;-99.256;2023-03-16T19:21:16;3.88;;;3.58;;
20954;SDS011;10636;19.390;-99.256;2023-03-16T19:23:49;3.58;;;3.28;;
20954;SDS011;10636;19.390;-99.256;2023-03-16T19:26:22;4.05;;;3.70;;
20954;SDS011;10636;19.390;-99.256;2023-03-16T19:28:51;3.55;;;3.25;;
20954;SDS011;10636;19.390;-99.256;2023-03-16T19:31:20;3.90;;;3.60;;
20954;SDS011;10636;19.390;-99.256;2023-03-16T19:33:52;3.90;;;3.60;;
20954;SDS011;10636;19.390;-99.256;2023-03-16T19:36:26;3.90;;;3.60;;
20954;SDS011;10636;19.390;-99.256;2023-03-16T19:38:56;4.15;;;3.75;;
20954;SDS011;10636;19.390;-99.256;2023-03-16T19:41:26;4.05;;;3.75;;
20954;SDS011;10636;19.390;-99.256;2023-03-16T19:43:58;3.92;;;3.63;;
20954;SDS011;10636;19.390;-99.256;2023-03-16T19:46:35;3.72;;;3.42;;
20954;SDS011;10636;19.390;-99.256;2023-03-16T19:49:04;3.83;;;3.45;;
20954;SDS011;10636;19.390;-99.256;2023-03-16T19:51:37;3.60;;;3.30;;
20954;SDS011;10636;19.390;-99.256;2023-03-16T19:54:06;3.75;;;3.40;;
20954;SDS011;10636;19.390;-99.256;2023-03-16T19:56:38;4.00;;;3.70;;
20954;SDS011;10636;19.390;-99.256;2023-03-16T19:59:07;4.07;;;3.78;;
20954;SDS011;10636;19.390;-99.256;2023-03-16T20:01:36;4.60;;;4.20;;
20954;SDS011;10636;19.390;-99.256;2023-03-16T20:04:07;5.00;;;3.88;;